createdAt,value
2023-04-14T00:00:55.979Z,100410.16
2023-04-14T00:03:22.569Z,100420.78
2023-04-14T00:05:49.110Z,100432.97
2023-04-14T00:08:15.660Z,100431.63
2023-04-14T00:10:54.058Z,100432.97
2023-04-14T00:13:20.476Z,100443.03
2023-04-14T00:15:46.868Z,100442.16
2023-04-14T00:18:13.263Z,100444.69
2023-04-14T00:20:39.650Z,100446.09
2023-04-14T00:23:06.081Z,100442.78
2023-04-14T00:25:32.507Z,100449.19
2023-04-14T00:27:58.925Z,100451.13
2023-04-14T00:30:25.568Z,100454.19
2023-04-14T00:32:52.008Z,100463.34
2023-04-14T00:35:18.415Z,100460.28
2023-04-14T00:37:44.796Z,100453.59
2023-04-14T00:40:11.322Z,100456.38
2023-04-14T00:42:46.244Z,100458.34
2023-04-14T00:45:14.865Z,100460.28
2023-04-14T00:47:46.772Z,100456.25
2023-04-14T00:50:14.987Z,100464.22
2023-04-14T00:52:43.714Z,100466.13
2023-04-14T00:55:11.021Z,100465.31
2023-04-14T00:57:38.200Z,100466.13
2023-04-14T01:00:05.390Z,100461.72
2023-04-14T01:02:32.497Z,100464.22
2023-04-14T01:04:59.509Z,100463.69
2023-04-14T01:07:27.762Z,100463.09
2023-04-14T01:09:56.136Z,100463.16
2023-04-14T01:12:49.682Z,100462.56
2023-04-14T01:15:32.618Z,100462.53
2023-04-14T01:18:19.628Z,100453.34
2023-04-14T01:20:51.720Z,100464.78
2023-04-14T01:23:27.097Z,100469.50
2023-04-14T01:26:16.962Z,100477.59
2023-04-14T01:29:02.415Z,100464.22
2023-04-14T01:31:34.209Z,100465.63
2023-04-14T01:34:11.475Z,100462.31
2023-04-14T01:36:42.308Z,100460.38
2023-04-14T01:39:12.425Z,100458.16
2023-04-14T01:41:42.177Z,100463.72
2023-04-14T01:44:11.076Z,100469.00
2023-04-14T01:46:38.546Z,100463.22
2023-04-14T01:49:05.554Z,100464.88
2023-04-14T01:51:33.743Z,100466.00
2023-04-14T01:54:02.391Z,100481.53
2023-04-14T01:56:29.695Z,100469.00
2023-04-14T01:58:57.707Z,100467.84
2023-04-14T02:01:27.767Z,100460.28
2023-04-14T02:03:56.526Z,100469.78
2023-04-14T02:06:24.822Z,100459.22
2023-04-14T02:08:52.198Z,100463.69
2023-04-14T02:11:20.196Z,100463.09
2023-04-14T02:13:49.045Z,100473.66
2023-04-14T02:16:16.580Z,100470.13
2023-04-14T02:18:43.850Z,100466.19
2023-04-14T02:21:11.915Z,100467.59
2023-04-14T02:23:38.334Z,100463.97
2023-04-14T02:26:11.994Z,100462.31
2023-04-14T02:28:45.504Z,100457.03
2023-04-14T02:31:16.699Z,100473.44
2023-04-14T02:33:44.993Z,100466.00
2023-04-14T02:36:18.357Z,100471.84
2023-04-14T02:38:54.863Z,100468.50
2023-04-14T02:41:26.504Z,100471.88
2023-04-14T02:44:03.873Z,100471.81
2023-04-14T02:46:36.794Z,100477.94
2023-04-14T02:49:06.024Z,100475.44
2023-04-14T02:51:36.178Z,100478.41
2023-04-14T02:54:04.480Z,100480.63
2023-04-14T02:56:41.026Z,100476.97
2023-04-14T02:59:08.052Z,100478.38
2023-04-14T03:01:39.134Z,100477.84
2023-04-14T03:04:06.204Z,100475.91
2023-04-14T03:06:36.229Z,100469.78
2023-04-14T03:09:04.821Z,100475.41
2023-04-14T03:11:32.855Z,100474.31
2023-04-14T03:14:00.674Z,100484.59
2023-04-14T03:16:28.714Z,100491.00
2023-04-14T03:18:56.331Z,100489.59
2023-04-14T03:21:24.223Z,100480.72
2023-04-14T03:23:52.781Z,100480.13
2023-04-14T03:26:23.331Z,100481.28
2023-04-14T03:28:53.372Z,100473.75
2023-04-14T03:31:22.278Z,100473.19
2023-04-14T03:33:57.190Z,100465.13
2023-04-14T03:36:30.743Z,100463.75
2023-04-14T03:39:01.499Z,100461.59
2023-04-14T03:41:34.229Z,100462.41
2023-04-14T03:44:01.707Z,100459.38
2023-04-14T03:46:29.159Z,100465.50
2023-04-14T03:48:58.674Z,100464.16
2023-04-14T03:51:29.175Z,100458.56
2023-04-14T03:53:58.319Z,100465.53
2023-04-14T03:56:26.467Z,100462.47
2023-04-14T03:58:55.568Z,100458.84
2023-04-14T04:01:25.787Z,100456.03
2023-04-14T04:03:54.434Z,100464.94
2023-04-14T04:06:22.660Z,100454.13
2023-04-14T04:08:49.740Z,100461.06
2023-04-14T04:11:18.893Z,100457.16
2023-04-14T04:13:48.241Z,100453.88
2023-04-14T04:16:16.924Z,100460.81
2023-04-14T04:18:46.938Z,100461.06
2023-04-14T04:21:19.228Z,100470.84
2023-04-14T04:23:53.294Z,100475.78
2023-04-14T04:26:20.631Z,100469.13
2023-04-14T04:28:48.513Z,100477.22
2023-04-14T04:31:16.443Z,100464.66
2023-04-14T04:33:45.906Z,100473.84
2023-04-14T04:36:14.050Z,100476.63
2023-04-14T04:38:43.103Z,100478.63
2023-04-14T04:41:23.970Z,100476.94
2023-04-14T04:43:51.698Z,100485.31
2023-04-14T04:46:21.162Z,100479.22
2023-04-14T04:48:52.382Z,100479.75
2023-04-14T04:51:19.058Z,100474.16
2023-04-14T04:53:45.818Z,100469.13
2023-04-14T04:56:12.228Z,100473.63
2023-04-14T04:58:38.642Z,100479.50
2023-04-14T05:01:11.651Z,100473.13
2023-04-14T05:03:38.640Z,100483.38
2023-04-14T05:06:05.272Z,100477.84
2023-04-14T05:08:31.670Z,100486.22
2023-04-14T05:10:58.092Z,100484.53
2023-04-14T05:13:25.227Z,100484.53
2023-04-14T05:15:51.966Z,100474.81
2023-04-14T05:18:18.430Z,100473.16
2023-04-14T05:20:44.811Z,100477.31
2023-04-14T05:23:11.212Z,100481.50
2023-04-14T05:25:37.604Z,100488.22
2023-04-14T05:28:04.060Z,100485.16
2023-04-14T05:30:30.484Z,100480.44
2023-04-14T05:32:56.911Z,100479.06
2023-04-14T05:35:25.225Z,100473.78
2023-04-14T05:37:51.818Z,100477.69
2023-04-14T05:40:18.358Z,100479.91
2023-04-14T05:42:44.753Z,100481.88
2023-04-14T05:45:11.364Z,100470.19
2023-04-14T05:47:39.581Z,100471.56
2023-04-14T05:50:07.612Z,100478.28
2023-04-14T05:52:34.015Z,100479.13
2023-04-14T05:55:00.416Z,100476.59
2023-04-14T05:57:26.910Z,100477.44
2023-04-14T05:59:53.291Z,100486.09
2023-04-14T06:02:19.754Z,100486.38
2023-04-14T06:04:46.433Z,100481.66
2023-04-14T06:07:12.953Z,100478.31
2023-04-14T06:09:39.349Z,100473.31
2023-04-14T06:12:05.787Z,100483.63
2023-04-14T06:14:47.744Z,100481.38
2023-04-14T06:17:14.134Z,100487.53
2023-04-14T06:19:40.554Z,100489.22
2023-04-14T06:22:08.448Z,100489.22
2023-04-14T06:24:35.280Z,100491.44
2023-04-14T06:27:04.024Z,100491.47
2023-04-14T06:29:31.023Z,100495.41
2023-04-14T06:31:58.060Z,100500.69
2023-04-14T06:34:24.485Z,100502.09
2023-04-14T06:36:51.024Z,100501.00
2023-04-14T06:39:17.480Z,100499.31
2023-04-14T06:41:43.955Z,100493.75
2023-04-14T06:44:12.619Z,100499.31
2023-04-14T06:46:39.492Z,100489.56
2023-04-14T06:49:06.395Z,100495.69
2023-04-14T06:51:33.433Z,100488.44
2023-04-14T06:54:00.569Z,100496.56
2023-04-14T06:56:27.370Z,100502.13
2023-04-14T06:59:21.045Z,100495.16
2023-04-14T07:01:47.853Z,100509.09
2023-04-14T07:04:15.499Z,100504.34
2023-04-14T07:06:42.047Z,100515.53
2023-04-14T07:09:08.467Z,100508.00
2023-04-14T07:11:34.858Z,100509.94
2023-04-14T07:14:01.470Z,100510.47
2023-04-14T07:16:28.174Z,100503.78
2023-04-14T07:18:54.743Z,100496.56
2023-04-14T07:21:24.099Z,100500.16
2023-04-14T07:23:50.620Z,100494.84
2023-04-14T07:26:16.995Z,100501.84
2023-04-14T07:28:43.400Z,100503.78
2023-04-14T07:31:10.157Z,100507.16
2023-04-14T07:33:37.061Z,100501.25
2023-04-14T07:36:09.240Z,100505.75
2023-04-14T07:38:35.700Z,100511.59
2023-04-14T07:41:05.008Z,100508.81
2023-04-14T07:43:46.882Z,100506.28
2023-04-14T07:46:13.297Z,100511.59
2023-04-14T07:48:39.868Z,100509.91
2023-04-14T07:51:07.113Z,100514.63
2023-04-14T07:53:34.512Z,100517.44
2023-04-14T07:56:01.029Z,100519.66
2023-04-14T07:58:29.243Z,100526.38
2023-04-14T08:00:56.225Z,100524.16
2023-04-14T08:03:22.813Z,100520.78
2023-04-14T08:05:49.440Z,100521.06
2023-04-14T08:08:15.995Z,100514.91
2023-04-14T08:10:42.744Z,100512.41
2023-04-14T08:13:09.590Z,100513.50
2023-04-14T08:15:36.018Z,100521.88
2023-04-14T08:18:02.573Z,100526.06
2023-04-14T08:20:29.331Z,100524.97
2023-04-14T08:22:56.598Z,100526.06
2023-04-14T08:25:22.981Z,100526.63
2023-04-14T08:27:49.410Z,100524.94
2023-04-14T08:30:15.916Z,100521.56
2023-04-14T08:32:42.407Z,100524.66
2023-04-14T08:35:39.286Z,100521.00
2023-04-14T08:37:55.884Z,100530.75
2023-04-14T08:40:24.945Z,100524.91
2023-04-14T08:42:51.362Z,100525.16
2023-04-14T08:45:19.848Z,100526.00
2023-04-14T08:47:48.975Z,100522.03
2023-04-14T08:50:18.582Z,100511.22
2023-04-14T08:52:46.965Z,100506.72
2023-04-14T08:55:15.506Z,100501.72
2023-04-14T08:57:44.128Z,100505.63
2023-04-14T09:00:11.118Z,100505.88
2023-04-14T09:02:40.687Z,100509.22
2023-04-14T09:05:08.021Z,100513.44
2023-04-14T09:07:34.418Z,100516.78
2023-04-14T09:10:00.966Z,100519.00
2023-04-14T09:12:28.772Z,100520.13
2023-04-14T09:14:58.119Z,100519.25
2023-04-14T09:17:28.409Z,100509.75
2023-04-14T09:20:35.683Z,100511.78
2023-04-14T09:22:41.521Z,100516.53
2023-04-14T09:25:10.013Z,100516.53
2023-04-14T09:27:36.922Z,100512.63
2023-04-14T09:30:03.650Z,100510.66
2023-04-14T09:32:31.048Z,100513.50
2023-04-14T09:34:58.440Z,100512.59
2023-04-14T09:37:25.628Z,100510.97
2023-04-14T09:39:53.785Z,100512.09
2023-04-14T09:42:21.139Z,100503.72
2023-04-14T09:44:57.655Z,100496.41
2023-04-14T09:47:24.769Z,100495.84
2023-04-14T09:49:59.627Z,100505.38
2023-04-14T09:52:41.081Z,100494.75
2023-04-14T09:55:10.300Z,100494.19
2023-04-14T09:57:39.318Z,100494.44
2023-04-14T10:00:20.150Z,100498.66
2023-04-14T10:02:58.002Z,100504.28
2023-04-14T10:05:29.787Z,100497.56
2023-04-14T10:08:05.559Z,100499.53
2023-04-14T10:10:32.495Z,100490.84
2023-04-14T10:12:59.908Z,100495.03
2023-04-14T10:15:27.307Z,100496.41
2023-04-14T10:17:53.846Z,100501.16
2023-04-14T10:20:20.518Z,100498.03
2023-04-14T10:22:48.033Z,100494.69
2023-04-14T10:25:15.379Z,100489.34
2023-04-14T10:27:43.077Z,100499.19
2023-04-14T10:30:10.038Z,100489.69
2023-04-14T10:32:40.396Z,100488.00
2023-04-14T10:35:10.034Z,100490.25
2023-04-14T10:37:36.749Z,100486.38
2023-04-14T10:40:08.106Z,100478.84
2023-04-14T10:42:52.536Z,100488.59
2023-04-14T10:45:19.212Z,100484.09
2023-04-14T10:47:46.281Z,100481.84
2023-04-14T10:50:14.699Z,100478.72
2023-04-14T10:52:54.137Z,100475.66
2023-04-14T10:55:24.997Z,100470.72
2023-04-14T10:57:52.139Z,100471.28
2023-04-14T11:00:31.724Z,100474.56
2023-04-14T11:03:11.998Z,100476.25
2023-04-14T11:05:48.068Z,100477.34
2023-04-14T11:08:30.021Z,100466.47
2023-04-14T11:11:07.011Z,100463.09
2023-04-14T11:13:34.842Z,100456.13
2023-04-14T11:16:02.488Z,100456.09
2023-04-14T11:18:34.647Z,100454.97
2023-04-14T11:21:06.095Z,100451.59
2023-04-14T11:23:34.114Z,100456.09
2023-04-14T11:26:01.014Z,100447.72
2023-04-14T11:28:38.339Z,100458.03
2023-04-14T11:31:06.932Z,100453.03
2023-04-14T11:33:35.837Z,100453.00
2023-04-14T11:36:03.764Z,100456.06
2023-04-14T11:38:30.982Z,100458.34
2023-04-14T11:40:57.676Z,100453.09
2023-04-14T11:43:24.751Z,100462.00
2023-04-14T11:45:52.376Z,100453.34
2023-04-14T11:48:19.985Z,100457.53
2023-04-14T11:50:48.237Z,100451.72
2023-04-14T11:53:17.496Z,100454.06
2023-04-14T11:55:45.317Z,100455.03
2023-04-14T11:58:13.192Z,100456.78
2023-04-14T12:00:41.015Z,100458.75
2023-04-14T12:03:08.898Z,100468.59
2023-04-14T12:05:35.702Z,100464.97
2023-04-14T12:08:08.551Z,100452.66
2023-04-14T12:10:37.133Z,100453.47
2023-04-14T12:13:07.892Z,100452.31
2023-04-14T12:15:37.488Z,100446.97
2023-04-14T12:18:07.175Z,100451.25
2023-04-14T12:20:47.496Z,100439.50
2023-04-14T12:23:15.717Z,100432.78
2023-04-14T12:25:42.127Z,100442.22
2023-04-14T12:28:08.649Z,100444.50
2023-04-14T12:30:36.569Z,100440.00
2023-04-14T12:33:09.513Z,100436.38
2023-04-14T12:35:35.961Z,100440.00
2023-04-14T12:38:08.704Z,100429.66
2023-04-14T12:40:47.741Z,100428.03
2023-04-14T12:43:16.594Z,100424.97
2023-04-14T12:45:45.943Z,100428.03
2023-04-14T12:48:14.032Z,100425.81
2023-04-14T12:50:40.500Z,100421.03
2023-04-14T12:53:23.694Z,100411.59
2023-04-14T12:56:07.232Z,100417.72
2023-04-14T12:58:37.922Z,100411.59
2023-04-14T13:01:08.449Z,100408.50
2023-04-14T13:03:52.559Z,100419.94
2023-04-14T13:06:21.278Z,100406.50
2023-04-14T13:08:49.971Z,100410.19
2023-04-14T13:11:17.260Z,100404.88
2023-04-14T13:13:46.692Z,100406.84
2023-04-14T13:16:16.842Z,100398.22
2023-04-14T13:18:45.341Z,100398.22
2023-04-14T13:21:12.429Z,100403.81
2023-04-14T13:23:39.498Z,100396.50
2023-04-14T13:26:05.964Z,100389.28
2023-04-14T13:28:32.556Z,100383.94
2023-04-14T13:30:59.044Z,100389.84
2023-04-14T13:33:26.482Z,100387.03
2023-04-14T13:35:55.327Z,100387.63
2023-04-14T13:38:21.749Z,100382.56
2023-04-14T13:40:48.478Z,100379.53
2023-04-14T13:43:17.910Z,100380.63
2023-04-14T13:45:44.804Z,100385.09
2023-04-14T13:48:11.266Z,100375.66
2023-04-14T13:50:37.681Z,100381.50
2023-04-14T13:53:04.186Z,100377.00
2023-04-14T13:55:30.712Z,100375.03
2023-04-14T13:57:57.425Z,100380.63
2023-04-14T14:00:24.011Z,100376.44
2023-04-14T14:02:51.758Z,100376.47
2023-04-14T14:05:18.457Z,100376.97
2023-04-14T14:07:44.877Z,100374.50
2023-04-14T14:10:11.909Z,100379.47
2023-04-14T14:12:38.297Z,100375.53
2023-04-14T14:15:05.518Z,100373.81
2023-04-14T14:17:32.334Z,100368.59
2023-04-14T14:19:59.795Z,100370.31
2023-04-14T14:22:26.206Z,100359.94
2023-04-14T14:24:58.645Z,100361.34
2023-04-14T14:27:31.664Z,100361.94
2023-04-14T14:29:58.262Z,100355.78
2023-04-14T14:32:24.725Z,100356.94
2023-04-14T14:34:51.158Z,100353.56
2023-04-14T14:37:18.673Z,100355.31
2023-04-14T14:39:45.180Z,100345.53
2023-04-14T14:42:11.589Z,100349.16
2023-04-14T14:44:38.356Z,100341.00
2023-04-14T14:47:06.070Z,100334.63
2023-04-14T14:49:32.738Z,100348.84
2023-04-14T14:51:59.193Z,100349.44
2023-04-14T14:54:25.565Z,100350.00
2023-04-14T14:56:51.964Z,100343.84
2023-04-14T14:59:18.368Z,100337.16
2023-04-14T15:01:44.798Z,100328.22
2023-04-14T15:04:12.175Z,100336.06
2023-04-14T15:06:38.696Z,100332.41
2023-04-14T15:09:05.451Z,100325.44
2023-04-14T15:11:32.035Z,100330.19
2023-04-14T15:14:01.494Z,100332.06
2023-04-14T15:16:28.069Z,100330.19
2023-04-14T15:18:54.498Z,100331.03
2023-04-14T15:21:20.961Z,100331.03
2023-04-14T15:23:47.389Z,100333.56
2023-04-14T15:26:16.460Z,100326.59
2023-04-14T15:28:42.915Z,100336.94
2023-04-14T15:31:09.378Z,100329.91
2023-04-14T15:33:36.108Z,100331.88
2023-04-14T15:36:02.652Z,100337.78
2023-04-14T15:38:29.069Z,100341.41
2023-04-14T15:40:55.491Z,100341.72
2023-04-14T15:43:21.905Z,100337.53
2023-04-14T15:45:48.361Z,100338.59
2023-04-14T15:48:14.780Z,100343.94
2023-04-14T15:50:44.865Z,100339.75
2023-04-14T15:53:12.093Z,100339.72
2023-04-14T15:55:39.540Z,100346.41
2023-04-14T15:58:06.514Z,100338.59
2023-04-14T16:00:33.232Z,100339.69
2023-04-14T16:03:01.886Z,100338.28
2023-04-14T16:05:28.731Z,100329.38
2023-04-14T16:07:55.469Z,100337.16
2023-04-14T16:10:22.450Z,100333.25
2023-04-14T16:12:50.332Z,100328.50
2023-04-14T16:15:17.182Z,100334.97
2023-04-14T16:17:43.755Z,100341.38
2023-04-14T16:20:12.484Z,100349.19
2023-04-14T16:22:38.976Z,100350.00
2023-04-14T16:25:06.847Z,100354.19
2023-04-14T16:27:33.843Z,100356.16
2023-04-14T16:30:00.528Z,100347.78
2023-04-14T16:32:27.421Z,100341.38
2023-04-14T16:34:53.869Z,100345.25
2023-04-14T16:37:21.025Z,100346.97
2023-04-14T16:39:47.422Z,100346.13
2023-04-14T16:42:13.832Z,100341.34
2023-04-14T16:44:40.325Z,100344.72
2023-04-14T16:47:06.736Z,100347.47
2023-04-14T16:49:33.127Z,100343.31
2023-04-14T16:52:00.963Z,100341.38
2023-04-14T16:54:27.655Z,100346.66
2023-04-14T16:56:54.098Z,100354.44
2023-04-14T16:59:20.490Z,100352.47
2023-04-14T17:01:47.000Z,100346.88
2023-04-14T17:04:13.721Z,100350.31
2023-04-14T17:06:40.230Z,100363.13
2023-04-14T17:09:06.645Z,100355.81
2023-04-14T17:11:33.085Z,100351.09
2023-04-14T17:13:59.773Z,100344.97
2023-04-14T17:16:26.396Z,100340.22
2023-04-14T17:18:53.348Z,100342.44
2023-04-14T17:21:19.791Z,100339.09
2023-04-14T17:23:46.644Z,100338.81
2023-04-14T17:26:16.046Z,100343.59
2023-04-14T17:28:42.445Z,100344.38
2023-04-14T17:31:14.640Z,100346.63
2023-04-14T17:33:44.787Z,100343.53
2023-04-14T17:36:14.071Z,100348.00
2023-04-14T17:38:42.723Z,100348.25
2023-04-14T17:41:10.974Z,100348.25
2023-04-14T17:43:39.433Z,100364.41
2023-04-14T17:46:06.348Z,100354.13
2023-04-14T17:48:33.446Z,100350.50
2023-04-14T17:51:01.392Z,100356.63
2023-04-14T17:53:33.655Z,100355.25
2023-04-14T17:56:00.553Z,100350.22
2023-04-14T17:58:27.203Z,100354.16
2023-04-14T18:00:53.803Z,100350.78
2023-04-14T18:03:20.393Z,100349.66
2023-04-14T18:05:46.920Z,100351.91
2023-04-14T18:08:14.256Z,100346.34
2023-04-14T18:10:40.948Z,100342.16
2023-04-14T18:13:07.359Z,100348.81
2023-04-14T18:15:33.787Z,100349.66
2023-04-14T18:18:00.319Z,100350.78
2023-04-14T18:20:26.900Z,100353.03
2023-04-14T18:22:54.615Z,100350.78
2023-04-14T18:25:21.176Z,100352.19
2023-04-14T18:30:17.180Z,100353.56
2023-04-14T18:32:43.741Z,100356.09
2023-04-14T18:35:29.091Z,100355.81
2023-04-14T18:37:55.811Z,100362.81
2023-04-14T18:40:22.407Z,100345.22
2023-04-14T18:42:48.975Z,100352.19
2023-04-14T18:45:15.500Z,100349.66
2023-04-14T18:47:43.104Z,100352.50
2023-04-14T18:50:10.180Z,100347.19
2023-04-14T18:52:36.586Z,100352.22
2023-04-14T18:55:03.361Z,100350.84
2023-04-14T18:57:30.711Z,100350.59
2023-04-14T18:59:57.181Z,100356.72
2023-04-14T19:02:23.688Z,100360.59
2023-04-14T19:04:50.342Z,100357.81
2023-04-14T19:07:18.300Z,100357.88
2023-04-14T19:09:44.770Z,100361.47
2023-04-14T19:12:21.759Z,100357.28
2023-04-14T19:14:54.411Z,100356.47
2023-04-14T19:17:20.848Z,100341.13
2023-04-14T19:19:47.707Z,100339.19
2023-04-14T19:22:16.095Z,100336.06
2023-04-14T19:24:42.628Z,100328.84
2023-04-14T19:27:10.442Z,100326.06
2023-04-14T19:29:37.111Z,100320.22
2023-04-14T19:32:04.963Z,100323.81
2023-04-14T19:34:31.562Z,100321.59
2023-04-14T19:36:58.222Z,100311.25
2023-04-14T19:39:24.665Z,100307.03
2023-04-14T19:41:51.252Z,100302.63
2023-04-14T19:44:17.727Z,100301.25
2023-04-14T19:46:44.193Z,100301.75
2023-04-14T19:49:11.357Z,100300.13
2023-04-14T19:51:38.057Z,100307.34
2023-04-14T19:54:07.427Z,100309.31
2023-04-14T19:56:34.070Z,100308.47
2023-04-14T19:59:01.312Z,100306.19
2023-04-14T20:01:28.190Z,100300.66
2023-04-14T20:04:07.996Z,100298.94
2023-04-14T20:06:39.300Z,100311.50
2023-04-14T20:09:06.438Z,100311.22
2023-04-14T20:11:32.853Z,100303.16
2023-04-14T20:13:59.377Z,100304.00
2023-04-14T20:16:26.489Z,100300.34
2023-04-14T20:18:53.107Z,100293.72
2023-04-14T20:21:19.516Z,100294.53
2023-04-14T20:23:46.137Z,100296.50
2023-04-14T20:26:13.372Z,100300.41
2023-04-14T20:28:39.834Z,100297.91
2023-04-14T20:31:06.736Z,100294.81
2023-04-14T20:33:33.179Z,100312.31
2023-04-14T20:36:01.665Z,100309.84
2023-04-14T20:38:29.079Z,100295.94
2023-04-14T20:40:55.559Z,100291.19
2023-04-14T20:43:22.262Z,100288.19
2023-04-14T20:45:49.817Z,100301.56
2023-04-14T20:48:16.426Z,100287.31
2023-04-14T20:50:44.387Z,100297.66
2023-04-14T20:53:10.965Z,100292.88
2023-04-14T20:55:37.348Z,100280.06
2023-04-14T20:58:04.041Z,100274.75
2023-04-14T21:00:31.948Z,100280.59
2023-04-14T21:02:59.818Z,100277.22
2023-04-14T21:05:26.746Z,100271.94
2023-04-14T21:07:53.178Z,100273.03
2023-04-14T21:10:19.636Z,100266.63
2023-04-14T21:15:29.188Z,100267.19
2023-04-14T21:15:52.782Z,100271.66
2023-04-14T21:18:19.074Z,100275.03
2023-04-14T21:20:45.676Z,100275.59
2023-04-14T21:23:12.310Z,100263.38
2023-04-14T21:25:38.736Z,100260.03
2023-04-14T21:28:05.384Z,100254.41
2023-04-14T21:30:32.208Z,100254.94
2023-04-14T21:32:59.087Z,100252.13
2023-04-14T21:35:25.884Z,100240.69
2023-04-14T21:37:52.334Z,100253.25
2023-04-14T21:40:19.097Z,100256.63
2023-04-14T21:42:45.801Z,100249.66
2023-04-14T21:45:12.214Z,100244.34
2023-04-14T21:47:38.707Z,100244.06
2023-04-14T21:50:09.527Z,100252.97
2023-04-14T21:52:36.144Z,100244.88
2023-04-14T21:55:02.679Z,100244.56
2023-04-14T22:00:13.237Z,100238.69
2023-04-14T22:02:41.390Z,100225.38
2023-04-14T22:05:15.315Z,100226.75
2023-04-14T22:07:41.852Z,100227.31
2023-04-14T22:10:08.879Z,100226.97
2023-04-14T22:12:36.041Z,100223.75
2023-04-14T22:15:04.145Z,100221.72
2023-04-14T22:17:31.154Z,100229.78
2023-04-14T22:19:57.682Z,100224.81
2023-04-14T22:22:24.361Z,100219.81
2023-04-14T22:24:51.666Z,100221.75
2023-04-14T22:27:18.122Z,100220.28
2023-04-14T22:29:44.512Z,100218.06
2023-04-14T22:32:11.394Z,100210.88
2023-04-14T22:34:37.813Z,100213.03
2023-04-14T22:37:04.227Z,100211.91
2023-04-14T22:39:30.852Z,100207.78
2023-04-14T22:41:57.284Z,100205.81
2023-04-14T22:44:23.793Z,100200.72
2023-04-14T22:46:50.181Z,100211.38
2023-04-14T22:49:16.668Z,100204.22
2023-04-14T22:51:43.047Z,100205.81
2023-04-14T22:54:09.610Z,100206.41
2023-04-14T22:56:37.111Z,100208.06
2023-04-14T22:59:03.873Z,100202.72
2023-04-14T23:01:30.583Z,100204.72
2023-04-14T23:03:57.167Z,100205.59
2023-04-14T23:06:24.134Z,100204.41
2023-04-14T23:08:51.169Z,100206.88
2023-04-14T23:11:20.738Z,100204.66
2023-04-14T23:13:47.792Z,100204.63
2023-04-14T23:16:16.588Z,100199.63
2023-04-14T23:18:43.405Z,100202.13
2023-04-14T23:21:10.006Z,100180.94
2023-04-14T23:23:36.745Z,100193.78
2023-04-14T23:26:03.150Z,100193.78
2023-04-14T23:28:29.565Z,100201.09
2023-04-14T23:30:55.957Z,100202.41
2023-04-14T23:33:22.523Z,100191.53
2023-04-14T23:35:48.937Z,100199.31
2023-04-14T23:38:15.442Z,100188.69
2023-04-14T23:40:42.269Z,100191.25
2023-04-14T23:43:08.867Z,100186.47
2023-04-14T23:45:37.618Z,100191.75
2023-04-14T23:48:05.169Z,100188.94
2023-04-14T23:51:01.712Z,100180.59
2023-04-14T23:53:19.089Z,100195.06
2023-04-14T23:55:46.505Z,100192.81
2023-04-14T23:58:13.880Z,100188.66
